sensor_id;sensor_type;location;lat;lon;timestamp;temperature;humidity
23560;DHT22;11958;50.836;4.438;2023-07-13T00:08:26;18.10;64.70
23560;DHT22;11958;50.836;4.438;2023-07-13T00:10:52;18.20;63.20
23560;DHT22;11958;50.836;4.438;2023-07-13T00:13:20;18.00;65.30
23560;DHT22;11958;50.836;4.438;2023-07-13T00:15:45;17.90;66.20
23560;DHT22;11958;50.836;4.438;2023-07-13T00:18:12;18.00;66.10
23560;DHT22;11958;50.836;4.438;2023-07-13T00:20:37;17.80;66.20
23560;DHT22;11958;50.836;4.438;2023-07-13T00:23:03;17.80;66.30
23560;DHT22;11958;50.836;4.438;2023-07-13T00:25:29;18.10;66.90
23560;DHT22;11958;50.836;4.438;2023-07-13T00:27:54;18.10;66.80
23560;DHT22;11958;50.836;4.438;2023-07-13T00:30:21;18.20;64.90
23560;DHT22;11958;50.836;4.438;2023-07-13T00:32:47;18.10;65.70
23560;DHT22;11958;50.836;4.438;2023-07-13T00:35:14;18.30;64.90
23560;DHT22;11958;50.836;4.438;2023-07-13T00:37:40;18.00;66.60
23560;DHT22;11958;50.836;4.438;2023-07-13T00:40:07;17.90;67.10
23560;DHT22;11958;50.836;4.438;2023-07-13T00:42:33;17.90;67.90
23560;DHT22;11958;50.836;4.438;2023-07-13T00:47:38;17.70;67.90
23560;DHT22;11958;50.836;4.438;2023-07-13T00:50:08;17.80;67.40
23560;DHT22;11958;50.836;4.438;2023-07-13T00:52:36;17.90;68.10
23560;DHT22;11958;50.836;4.438;2023-07-13T00:55:03;17.90;67.80
23560;DHT22;11958;50.836;4.438;2023-07-13T01:08:17;17.40;69.80
23560;DHT22;11958;50.836;4.438;2023-07-13T01:30:22;17.10;71.30
23560;DHT22;11958;50.836;4.438;2023-07-13T01:32:50;17.00;71.90
23560;DHT22;11958;50.836;4.438;2023-07-13T01:42:39;17.30;71.30
23560;DHT22;11958;50.836;4.438;2023-07-13T01:53:51;17.00;72.20
23560;DHT22;11958;50.836;4.438;2023-07-13T01:56:43;17.10;72.10
23560;DHT22;11958;50.836;4.438;2023-07-13T02:02:35;17.00;71.50
23560;DHT22;11958;50.836;4.438;2023-07-13T02:21:30;17.00;73.30
23560;DHT22;11958;50.836;4.438;2023-07-13T02:31:11;17.10;73.20
23560;DHT22;11958;50.836;4.438;2023-07-13T03:16:15;16.70;76.30
23560;DHT22;11958;50.836;4.438;2023-07-13T03:22:40;16.60;76.10
23560;DHT22;11958;50.836;4.438;2023-07-13T03:35:35;16.50;76.60
23560;DHT22;11958;50.836;4.438;2023-07-13T03:53:08;16.00;78.40
23560;DHT22;11958;50.836;4.438;2023-07-13T03:59:07;16.40;77.90
23560;DHT22;11958;50.836;4.438;2023-07-13T04:05:54;16.80;77.10
23560;DHT22;11958;50.836;4.438;2023-07-13T04:09:08;16.90;76.80
23560;DHT22;11958;50.836;4.438;2023-07-13T04:23:08;17.30;75.90
23560;DHT22;11958;50.836;4.438;2023-07-13T04:29:03;17.00;76.80
23560;DHT22;11958;50.836;4.438;2023-07-13T04:36:49;17.00;77.00
23560;DHT22;11958;50.836;4.438;2023-07-13T04:39:18;17.20;77.20
23560;DHT22;11958;50.836;4.438;2023-07-13T04:41:44;17.70;75.50
23560;DHT22;11958;50.836;4.438;2023-07-13T04:44:10;17.60;75.20
23560;DHT22;11958;50.836;4.438;2023-07-13T04:46:35;17.20;76.50
23560;DHT22;11958;50.836;4.438;2023-07-13T04:49:01;17.20;76.10
23560;DHT22;11958;50.836;4.438;2023-07-13T04:51:29;17.20;76.80
23560;DHT22;11958;50.836;4.438;2023-07-13T04:53:55;17.20;77.10
23560;DHT22;11958;50.836;4.438;2023-07-13T04:56:20;17.20;77.20
23560;DHT22;11958;50.836;4.438;2023-07-13T04:58:48;17.30;77.00
23560;DHT22;11958;50.836;4.438;2023-07-13T05:09:22;17.60;75.80
23560;DHT22;11958;50.836;4.438;2023-07-13T05:11:52;17.70;76.70
23560;DHT22;11958;50.836;4.438;2023-07-13T05:17:05;17.60;76.30
23560;DHT22;11958;50.836;4.438;2023-07-13T05:19:42;17.30;76.90
23560;DHT22;11958;50.836;4.438;2023-07-13T05:22:32;17.30;77.30
23560;DHT22;11958;50.836;4.438;2023-07-13T05:25:17;17.60;76.80
23560;DHT22;11958;50.836;4.438;2023-07-13T06:00:30;18.10;75.40
23560;DHT22;11958;50.836;4.438;2023-07-13T06:03:13;18.00;76.40
23560;DHT22;11958;50.836;4.438;2023-07-13T06:12:53;18.00;75.80
23560;DHT22;11958;50.836;4.438;2023-07-13T06:15:27;18.20;73.40
23560;DHT22;11958;50.836;4.438;2023-07-13T06:18:07;18.30;74.00
23560;DHT22;11958;50.836;4.438;2023-07-13T06:27:16;18.50;73.60
23560;DHT22;11958;50.836;4.438;2023-07-13T06:36:15;18.70;72.40
23560;DHT22;11958;50.836;4.438;2023-07-13T06:38:47;18.70;73.20
23560;DHT22;11958;50.836;4.438;2023-07-13T06:41:12;18.80;73.20
23560;DHT22;11958;50.836;4.438;2023-07-13T06:43:38;18.90;72.80
23560;DHT22;11958;50.836;4.438;2023-07-13T06:46:04;19.00;71.50
23560;DHT22;11958;50.836;4.438;2023-07-13T06:48:30;19.10;71.60
23560;DHT22;11958;50.836;4.438;2023-07-13T06:51:01;19.10;72.00
23560;DHT22;11958;50.836;4.438;2023-07-13T06:53:27;19.20;71.70
23560;DHT22;11958;50.836;4.438;2023-07-13T06:55:53;19.20;71.10
23560;DHT22;11958;50.836;4.438;2023-07-13T06:58:19;19.50;69.70
23560;DHT22;11958;50.836;4.438;2023-07-13T07:00:45;19.50;69.00
23560;DHT22;11958;50.836;4.438;2023-07-13T07:03:11;19.60;69.10
23560;DHT22;11958;50.836;4.438;2023-07-13T07:05:37;19.40;69.40
23560;DHT22;11958;50.836;4.438;2023-07-13T07:08:03;19.40;69.90
23560;DHT22;11958;50.836;4.438;2023-07-13T07:10:30;19.40;70.00
23560;DHT22;11958;50.836;4.438;2023-07-13T07:12:56;19.40;69.90
23560;DHT22;11958;50.836;4.438;2023-07-13T07:15:22;19.60;70.20
23560;DHT22;11958;50.836;4.438;2023-07-13T07:17:48;19.70;69.00
23560;DHT22;11958;50.836;4.438;2023-07-13T07:20:20;19.60;70.20
23560;DHT22;11958;50.836;4.438;2023-07-13T07:22:46;19.50;69.10
23560;DHT22;11958;50.836;4.438;2023-07-13T07:25:19;19.70;69.10
23560;DHT22;11958;50.836;4.438;2023-07-13T07:27:47;20.00;67.30
23560;DHT22;11958;50.836;4.438;2023-07-13T07:30:13;19.90;68.70
23560;DHT22;11958;50.836;4.438;2023-07-13T07:32:40;19.90;68.60
23560;DHT22;11958;50.836;4.438;2023-07-13T07:35:07;20.00;69.30
23560;DHT22;11958;50.836;4.438;2023-07-13T07:41:17;19.90;68.50
23560;DHT22;11958;50.836;4.438;2023-07-13T07:47:23;19.70;68.50
23560;DHT22;11958;50.836;4.438;2023-07-13T07:49:55;19.90;68.20
23560;DHT22;11958;50.836;4.438;2023-07-13T07:55:42;19.80;68.30
23560;DHT22;11958;50.836;4.438;2023-07-13T08:01:02;19.70;68.90
23560;DHT22;11958;50.836;4.438;2023-07-13T08:03:28;19.80;68.70
23560;DHT22;11958;50.836;4.438;2023-07-13T08:06:16;19.80;68.40
23560;DHT22;11958;50.836;4.438;2023-07-13T08:15:11;20.50;65.60
23560;DHT22;11958;50.836;4.438;2023-07-13T08:20:28;20.70;66.30
23560;DHT22;11958;50.836;4.438;2023-07-13T08:33:34;20.40;63.80
23560;DHT22;11958;50.836;4.438;2023-07-13T08:36:22;21.00;62.10
23560;DHT22;11958;50.836;4.438;2023-07-13T08:39:42;20.90;61.20
23560;DHT22;11958;50.836;4.438;2023-07-13T08:42:56;21.40;60.20
23560;DHT22;11958;50.836;4.438;2023-07-13T09:15:14;21.80;56.50
23560;DHT22;11958;50.836;4.438;2023-07-13T09:22:15;21.50;57.10
23560;DHT22;11958;50.836;4.438;2023-07-13T09:24:54;21.50;58.90
23560;DHT22;11958;50.836;4.438;2023-07-13T09:27:45;22.10;57.10
23560;DHT22;11958;50.836;4.438;2023-07-13T09:37:14;22.20;55.60
23560;DHT22;11958;50.836;4.438;2023-07-13T09:39:45;22.00;55.10
23560;DHT22;11958;50.836;4.438;2023-07-13T09:45:00;22.50;55.00
23560;DHT22;11958;50.836;4.438;2023-07-13T09:55:22;22.60;54.60
23560;DHT22;11958;50.836;4.438;2023-07-13T10:04:19;22.70;55.00
23560;DHT22;11958;50.836;4.438;2023-07-13T10:13:46;23.30;51.40
23560;DHT22;11958;50.836;4.438;2023-07-13T10:16:14;23.50;52.50
23560;DHT22;11958;50.836;4.438;2023-07-13T10:25:32;23.20;50.90
23560;DHT22;11958;50.836;4.438;2023-07-13T10:31:14;23.30;51.50
23560;DHT22;11958;50.836;4.438;2023-07-13T10:36:52;23.60;51.70
23560;DHT22;11958;50.836;4.438;2023-07-13T10:51:35;24.30;47.50
23560;DHT22;11958;50.836;4.438;2023-07-13T10:57:53;23.60;48.30
23560;DHT22;11958;50.836;4.438;2023-07-13T11:03:54;22.70;51.40
23560;DHT22;11958;50.836;4.438;2023-07-13T11:12:05;23.80;48.40
23560;DHT22;11958;50.836;4.438;2023-07-13T11:14:42;23.50;48.90
23560;DHT22;11958;50.836;4.438;2023-07-13T11:32:44;23.70;44.20
23560;DHT22;11958;50.836;4.438;2023-07-13T11:35:31;23.60;46.80
23560;DHT22;11958;50.836;4.438;2023-07-13T11:47:24;23.60;47.60
23560;DHT22;11958;50.836;4.438;2023-07-13T11:50:21;23.60;48.30
23560;DHT22;11958;50.836;4.438;2023-07-13T11:52:52;23.70;44.50
23560;DHT22;11958;50.836;4.438;2023-07-13T11:55:23;23.30;48.20
23560;DHT22;11958;50.836;4.438;2023-07-13T11:58:01;23.00;48.40
23560;DHT22;11958;50.836;4.438;2023-07-13T12:00:32;23.30;48.20
23560;DHT22;11958;50.836;4.438;2023-07-13T12:03:13;22.80;48.40
23560;DHT22;11958;50.836;4.438;2023-07-13T12:15:45;22.60;48.70
23560;DHT22;11958;50.836;4.438;2023-07-13T12:18:23;22.80;47.70
23560;DHT22;11958;50.836;4.438;2023-07-13T12:20:58;22.80;48.40
23560;DHT22;11958;50.836;4.438;2023-07-13T12:23:32;22.80;48.20
23560;DHT22;11958;50.836;4.438;2023-07-13T12:33:30;23.60;46.40
23560;DHT22;11958;50.836;4.438;2023-07-13T12:36:02;24.10;45.00
23560;DHT22;11958;50.836;4.438;2023-07-13T12:38:30;23.70;44.80
23560;DHT22;11958;50.836;4.438;2023-07-13T12:40:56;23.00;47.50
23560;DHT22;11958;50.836;4.438;2023-07-13T12:43:39;21.70;52.20
23560;DHT22;11958;50.836;4.438;2023-07-13T12:46:19;21.30;54.80
23560;DHT22;11958;50.836;4.438;2023-07-13T12:48:57;21.30;56.60
23560;DHT22;11958;50.836;4.438;2023-07-13T13:07:54;20.30;71.50
23560;DHT22;11958;50.836;4.438;2023-07-13T13:10:26;20.30;72.40
23560;DHT22;11958;50.836;4.438;2023-07-13T13:12:52;20.10;72.60
23560;DHT22;11958;50.836;4.438;2023-07-13T13:15:18;20.40;75.10
23560;DHT22;11958;50.836;4.438;2023-07-13T13:17:44;21.30;69.90
23560;DHT22;11958;50.836;4.438;2023-07-13T13:20:18;22.80;67.70
23560;DHT22;11958;50.836;4.438;2023-07-13T13:22:44;24.90;59.00
23560;DHT22;11958;50.836;4.438;2023-07-13T13:25:11;25.70;48.00
23560;DHT22;11958;50.836;4.438;2023-07-13T13:27:37;24.70;51.60
23560;DHT22;11958;50.836;4.438;2023-07-13T13:30:03;24.20;52.40
23560;DHT22;11958;50.836;4.438;2023-07-13T13:32:30;23.70;55.50
23560;DHT22;11958;50.836;4.438;2023-07-13T13:34:56;23.70;53.70
23560;DHT22;11958;50.836;4.438;2023-07-13T13:37:23;23.40;53.50
23560;DHT22;11958;50.836;4.438;2023-07-13T13:39:50;23.90;50.40
23560;DHT22;11958;50.836;4.438;2023-07-13T13:42:17;24.00;53.10
23560;DHT22;11958;50.836;4.438;2023-07-13T13:44:43;24.20;49.60
23560;DHT22;11958;50.836;4.438;2023-07-13T13:47:30;24.50;52.00
23560;DHT22;11958;50.836;4.438;2023-07-13T13:49:56;24.80;45.40
23560;DHT22;11958;50.836;4.438;2023-07-13T13:52:23;26.00;45.10
23560;DHT22;11958;50.836;4.438;2023-07-13T13:54:49;26.40;43.10
23560;DHT22;11958;50.836;4.438;2023-07-13T13:57:15;27.00;42.60
23560;DHT22;11958;50.836;4.438;2023-07-13T13:59:41;27.30;40.50
23560;DHT22;11958;50.836;4.438;2023-07-13T14:02:23;27.10;40.50
23560;DHT22;11958;50.836;4.438;2023-07-13T14:04:57;25.90;42.70
23560;DHT22;11958;50.836;4.438;2023-07-13T14:07:23;25.60;44.00
23560;DHT22;11958;50.836;4.438;2023-07-13T14:09:49;25.30;46.50
23560;DHT22;11958;50.836;4.438;2023-07-13T14:12:15;25.10;47.00
23560;DHT22;11958;50.836;4.438;2023-07-13T14:14:53;24.90;49.40
23560;DHT22;11958;50.836;4.438;2023-07-13T14:28:28;24.60;47.80
23560;DHT22;11958;50.836;4.438;2023-07-13T14:30:54;24.10;48.00
23560;DHT22;11958;50.836;4.438;2023-07-13T14:33:20;23.90;48.40
23560;DHT22;11958;50.836;4.438;2023-07-13T14:35:46;23.80;49.70
23560;DHT22;11958;50.836;4.438;2023-07-13T14:38:15;23.70;50.50
23560;DHT22;11958;50.836;4.438;2023-07-13T14:40:42;23.60;50.70
23560;DHT22;11958;50.836;4.438;2023-07-13T14:43:13;23.60;51.80
23560;DHT22;11958;50.836;4.438;2023-07-13T14:45:44;23.60;51.70
23560;DHT22;11958;50.836;4.438;2023-07-13T14:48:20;23.30;50.50
23560;DHT22;11958;50.836;4.438;2023-07-13T14:50:47;23.10;52.60
23560;DHT22;11958;50.836;4.438;2023-07-13T14:53:13;23.80;49.40
23560;DHT22;11958;50.836;4.438;2023-07-13T14:55:39;25.70;44.40
23560;DHT22;11958;50.836;4.438;2023-07-13T14:58:06;26.60;41.00
23560;DHT22;11958;50.836;4.438;2023-07-13T15:00:32;26.60;39.60
23560;DHT22;11958;50.836;4.438;2023-07-13T15:02:59;26.60;40.50
23560;DHT22;11958;50.836;4.438;2023-07-13T15:05:28;26.20;42.20
23560;DHT22;11958;50.836;4.438;2023-07-13T15:07:59;26.20;41.80
23560;DHT22;11958;50.836;4.438;2023-07-13T15:10:28;26.20;42.80
23560;DHT22;11958;50.836;4.438;2023-07-13T15:13:01;27.30;39.10
23560;DHT22;11958;50.836;4.438;2023-07-13T15:15:32;26.80;37.70
23560;DHT22;11958;50.836;4.438;2023-07-13T15:17:59;26.70;38.30
23560;DHT22;11958;50.836;4.438;2023-07-13T15:20:31;26.70;38.90
23560;DHT22;11958;50.836;4.438;2023-07-13T15:22:58;26.40;38.40
23560;DHT22;11958;50.836;4.438;2023-07-13T15:25:26;25.90;40.60
23560;DHT22;11958;50.836;4.438;2023-07-13T15:27:53;25.90;42.10
23560;DHT22;11958;50.836;4.438;2023-07-13T15:30:19;25.60;43.20
23560;DHT22;11958;50.836;4.438;2023-07-13T15:32:46;25.30;42.20
23560;DHT22;11958;50.836;4.438;2023-07-13T15:35:25;24.90;42.00
23560;DHT22;11958;50.836;4.438;2023-07-13T15:37:51;25.00;44.90
23560;DHT22;11958;50.836;4.438;2023-07-13T15:40:18;24.80;43.80
23560;DHT22;11958;50.836;4.438;2023-07-13T15:42:47;24.50;44.20
23560;DHT22;11958;50.836;4.438;2023-07-13T15:45:23;24.30;45.60
23560;DHT22;11958;50.836;4.438;2023-07-13T15:47:53;24.60;42.50
23560;DHT22;11958;50.836;4.438;2023-07-13T15:50:24;24.50;44.60
23560;DHT22;11958;50.836;4.438;2023-07-13T15:52:58;24.30;42.70
23560;DHT22;11958;50.836;4.438;2023-07-13T15:55:24;24.50;44.70
23560;DHT22;11958;50.836;4.438;2023-07-13T15:57:51;24.40;44.70
23560;DHT22;11958;50.836;4.438;2023-07-13T16:00:26;24.10;43.10
23560;DHT22;11958;50.836;4.438;2023-07-13T16:02:52;24.40;42.20
23560;DHT22;11958;50.836;4.438;2023-07-13T16:05:20;24.60;44.10
23560;DHT22;11958;50.836;4.438;2023-07-13T16:07:48;24.80;42.80
23560;DHT22;11958;50.836;4.438;2023-07-13T16:10:50;25.00;42.50
23560;DHT22;11958;50.836;4.438;2023-07-13T16:13:38;24.80;41.20
23560;DHT22;11958;50.836;4.438;2023-07-13T16:17:01;25.00;44.30
23560;DHT22;11958;50.836;4.438;2023-07-13T16:23:42;24.60;44.00
23560;DHT22;11958;50.836;4.438;2023-07-13T16:26:37;24.50;43.50
23560;DHT22;11958;50.836;4.438;2023-07-13T16:29:29;24.30;41.20
23560;DHT22;11958;50.836;4.438;2023-07-13T16:32:22;24.40;42.50
23560;DHT22;11958;50.836;4.438;2023-07-13T16:38:27;24.10;43.50
23560;DHT22;11958;50.836;4.438;2023-07-13T16:44:23;24.60;41.70
23560;DHT22;11958;50.836;4.438;2023-07-13T16:47:01;24.90;41.50
23560;DHT22;11958;50.836;4.438;2023-07-13T16:49:32;24.60;42.10
23560;DHT22;11958;50.836;4.438;2023-07-13T16:52:13;24.50;42.20
23560;DHT22;11958;50.836;4.438;2023-07-13T16:54:39;24.60;41.40
23560;DHT22;11958;50.836;4.438;2023-07-13T16:57:32;24.40;38.20
23560;DHT22;11958;50.836;4.438;2023-07-13T17:00:01;24.40;39.30
23560;DHT22;11958;50.836;4.438;2023-07-13T17:02:35;24.10;38.10
23560;DHT22;11958;50.836;4.438;2023-07-13T17:05:02;24.10;37.50
23560;DHT22;11958;50.836;4.438;2023-07-13T17:07:28;24.20;38.30
23560;DHT22;11958;50.836;4.438;2023-07-13T17:09:57;24.10;37.50
23560;DHT22;11958;50.836;4.438;2023-07-13T17:12:22;24.20;37.20
23560;DHT22;11958;50.836;4.438;2023-07-13T17:14:48;24.50;38.40
23560;DHT22;11958;50.836;4.438;2023-07-13T17:17:19;24.90;38.80
23560;DHT22;11958;50.836;4.438;2023-07-13T17:19:50;24.80;37.30
23560;DHT22;11958;50.836;4.438;2023-07-13T17:34:36;24.30;37.20
23560;DHT22;11958;50.836;4.438;2023-07-13T18:03:21;23.90;39.60
23560;DHT22;11958;50.836;4.438;2023-07-13T18:05:49;23.80;38.90
23560;DHT22;11958;50.836;4.438;2023-07-13T19:09:41;22.10;43.50
23560;DHT22;11958;50.836;4.438;2023-07-13T19:12:49;22.10;44.20
23560;DHT22;11958;50.836;4.438;2023-07-13T19:15:32;22.10;45.00
23560;DHT22;11958;50.836;4.438;2023-07-13T19:18:00;22.40;44.50
23560;DHT22;11958;50.836;4.438;2023-07-13T19:20:27;22.30;43.90
23560;DHT22;11958;50.836;4.438;2023-07-13T19:23:01;22.30;43.50
23560;DHT22;11958;50.836;4.438;2023-07-13T19:25:28;22.20;43.30
23560;DHT22;11958;50.836;4.438;2023-07-13T19:28:11;22.20;43.60
23560;DHT22;11958;50.836;4.438;2023-07-13T19:30:41;22.30;43.90
23560;DHT22;11958;50.836;4.438;2023-07-13T19:36:46;22.20;43.70
23560;DHT22;11958;50.836;4.438;2023-07-13T20:09:35;21.70;47.40
23560;DHT22;11958;50.836;4.438;2023-07-13T21:00:06;20.90;50.40
23560;DHT22;11958;50.836;4.438;2023-07-13T21:09:26;21.00;52.40
23560;DHT22;11958;50.836;4.438;2023-07-13T21:11:54;21.20;52.70
23560;DHT22;11958;50.836;4.438;2023-07-13T21:14:20;21.10;51.40
23560;DHT22;11958;50.836;4.438;2023-07-13T21:16:49;21.20;52.30
23560;DHT22;11958;50.836;4.438;2023-07-13T21:19:15;21.20;51.80
23560;DHT22;11958;50.836;4.438;2023-07-13T21:21:59;21.20;52.00
23560;DHT22;11958;50.836;4.438;2023-07-13T21:27:04;20.80;54.60
23560;DHT22;11958;50.836;4.438;2023-07-13T21:48:19;20.30;56.50
23560;DHT22;11958;50.836;4.438;2023-07-13T21:50:53;20.60;57.30
23560;DHT22;11958;50.836;4.438;2023-07-13T21:53:50;20.30;57.50
23560;DHT22;11958;50.836;4.438;2023-07-13T21:56:36;20.30;56.60
23560;DHT22;11958;50.836;4.438;2023-07-13T21:59:30;20.00;58.30
23560;DHT22;11958;50.836;4.438;2023-07-13T22:02:13;20.30;56.90
23560;DHT22;11958;50.836;4.438;2023-07-13T22:22:22;20.20;57.80
23560;DHT22;11958;50.836;4.438;2023-07-13T22:35:16;20.10;57.50
23560;DHT22;11958;50.836;4.438;2023-07-13T22:37:42;20.00;57.40
23560;DHT22;11958;50.836;4.438;2023-07-13T22:40:14;20.00;57.80
23560;DHT22;11958;50.836;4.438;2023-07-13T22:42:42;19.90;57.80
23560;DHT22;11958;50.836;4.438;2023-07-13T22:45:09;20.00;58.40
23560;DHT22;11958;50.836;4.438;2023-07-13T22:47:40;19.90;57.70
23560;DHT22;11958;50.836;4.438;2023-07-13T22:50:19;19.90;57.80
23560;DHT22;11958;50.836;4.438;2023-07-13T22:53:33;20.00;57.20
23560;DHT22;11958;50.836;4.438;2023-07-13T22:56:00;20.00;58.00
23560;DHT22;11958;50.836;4.438;2023-07-13T22:58:51;19.90;58.20
23560;DHT22;11958;50.836;4.438;2023-07-13T23:15:48;19.70;58.80
23560;DHT22;11958;50.836;4.438;2023-07-13T23:22:38;19.60;58.80
23560;DHT22;11958;50.836;4.438;2023-07-13T23:25:15;19.40;59.90
23560;DHT22;11958;50.836;4.438;2023-07-13T23:31:03;19.30;60.80
23560;DHT22;11958;50.836;4.438;2023-07-13T23:33:30;19.40;60.60
23560;DHT22;11958;50.836;4.438;2023-07-13T23:35:58;19.20;61.10
23560;DHT22;11958;50.836;4.438;2023-07-13T23:38:26;19.30;61.50
23560;DHT22;11958;50.836;4.438;2023-07-13T23:40:53;19.30;61.40
23560;DHT22;11958;50.836;4.438;2023-07-13T23:43:18;19.20;62.00
23560;DHT22;11958;50.836;4.438;2023-07-13T23:45:44;19.30;61.60
23560;DHT22;11958;50.836;4.438;2023-07-13T23:48:12;19.40;61.10
23560;DHT22;11958;50.836;4.438;2023-07-13T23:50:41;19.10;62.20
23560;DHT22;11958;50.836;4.438;2023-07-13T23:53:12;18.90;62.80
23560;DHT22;11958;50.836;4.438;2023-07-13T23:55:38;19.10;62.90
23560;DHT22;11958;50.836;4.438;2023-07-13T23:58:04;19.10;62.30
